createdAt,value
2023-05-02T00:00:15.038Z,95386.56
2023-05-02T00:02:43.400Z,95389.66
2023-05-02T00:05:13.092Z,95391.84
2023-05-02T00:07:42.344Z,95385.66
2023-05-02T00:10:11.112Z,95387.25
2023-05-02T00:12:39.690Z,95382.78
2023-05-02T00:15:09.411Z,95383.38
2023-05-02T00:17:38.083Z,95379.13
2023-05-02T00:20:09.565Z,95378.13
2023-05-02T00:22:39.563Z,95376.50
2023-05-02T00:25:08.847Z,95379.38
2023-05-02T00:27:37.249Z,95378.81
2023-05-02T00:30:06.692Z,95372.75
2023-05-02T00:32:34.919Z,95377.22
2023-05-02T00:35:03.708Z,95376.88
2023-05-02T00:37:32.005Z,95377.34
2023-05-02T00:40:01.840Z,95372.34
2023-05-02T00:42:31.869Z,95379.88
2023-05-02T00:44:59.949Z,95374.28
2023-05-02T00:47:29.717Z,95372.47
2023-05-02T00:49:59.315Z,95379.22
2023-05-02T00:52:28.122Z,95378.44
2023-05-02T00:54:57.063Z,95375.22
2023-05-02T00:57:26.735Z,95381.75
2023-05-02T00:59:55.125Z,95373.84
2023-05-02T01:02:33.982Z,95388.53
2023-05-02T01:05:12.527Z,95389.78
2023-05-02T01:08:11.212Z,95393.69
2023-05-02T01:10:51.193Z,95387.03
2023-05-02T01:13:24.194Z,95391.75
2023-05-02T01:15:55.176Z,95388.31
2023-05-02T01:18:26.757Z,95395.41
2023-05-02T01:21:02.015Z,95388.00
2023-05-02T01:23:40.078Z,95386.38
2023-05-02T01:26:18.931Z,95382.38
2023-05-02T01:29:00.140Z,95388.44
2023-05-02T01:31:33.012Z,95388.31
2023-05-02T01:34:03.531Z,95384.09
2023-05-02T01:36:36.261Z,95386.16
2023-05-02T01:39:08.481Z,95391.66
2023-05-02T01:41:38.833Z,95389.84
2023-05-02T01:44:11.035Z,95392.91
2023-05-02T01:46:43.458Z,95394.75
2023-05-02T01:49:12.278Z,95386.28
2023-05-02T01:51:47.194Z,95389.72
2023-05-02T01:54:18.648Z,95392.59
2023-05-02T01:56:47.320Z,95398.25
2023-05-02T01:59:21.042Z,95393.25
2023-05-02T02:01:52.283Z,95390.84
2023-05-02T02:04:21.892Z,95400.34
2023-05-02T02:06:56.804Z,95400.34
2023-05-02T02:09:25.405Z,95402.97
2023-05-02T02:12:02.940Z,95406.06
2023-05-02T02:14:38.099Z,95405.59
2023-05-02T02:17:14.581Z,95414.50
2023-05-02T02:19:44.632Z,95414.28
2023-05-02T02:22:15.831Z,95417.94
2023-05-02T02:24:48.949Z,95410.84
2023-05-02T02:27:17.439Z,95413.03
2023-05-02T02:29:47.404Z,95417.50
2023-05-02T02:32:15.520Z,95411.25
2023-05-02T02:34:43.751Z,95411.41
2023-05-02T02:37:19.367Z,95418.50
2023-05-02T02:40:01.911Z,95415.09
2023-05-02T02:42:40.277Z,95424.81
2023-05-02T02:45:23.213Z,95412.69
2023-05-02T02:48:01.469Z,95415.56
2023-05-02T02:50:38.155Z,95421.84
2023-05-02T02:53:10.019Z,95428.13
2023-05-02T02:55:46.914Z,95425.28
2023-05-02T02:58:22.757Z,95425.47
2023-05-02T03:00:54.011Z,95430.53
2023-05-02T03:03:29.172Z,95437.84
2023-05-02T03:05:58.716Z,95432.81
2023-05-02T03:08:27.657Z,95425.72
2023-05-02T03:10:55.940Z,95440.69
2023-05-02T03:13:24.211Z,95430.41
2023-05-02T03:16:30.691Z,95440.13
2023-05-02T03:18:59.013Z,95445.84
2023-05-02T03:21:27.069Z,95443.22
2023-05-02T03:23:57.444Z,95441.59
2023-05-02T03:26:25.824Z,95437.38
2023-05-02T03:28:54.167Z,95443.13
2023-05-02T03:31:30.708Z,95449.38
2023-05-02T03:33:59.078Z,95446.97
2023-05-02T03:36:27.459Z,95453.50
2023-05-02T03:38:56.413Z,95450.09
2023-05-02T03:41:26.216Z,95449.72
2023-05-02T03:44:01.466Z,95455.22
2023-05-02T03:46:31.926Z,95454.88
2023-05-02T03:49:00.020Z,95451.41
2023-05-02T03:51:28.071Z,95459.31
2023-05-02T03:53:58.584Z,95462.78
2023-05-02T03:56:27.148Z,95467.00
2023-05-02T03:59:12.892Z,95470.66
2023-05-02T04:01:42.729Z,95469.50
2023-05-02T04:04:13.407Z,95473.72
2023-05-02T04:06:49.034Z,95473.50
2023-05-02T04:09:19.112Z,95478.53
2023-05-02T04:11:53.264Z,95484.59
2023-05-02T04:14:21.823Z,95491.69
2023-05-02T04:16:53.944Z,95490.84
2023-05-02T04:19:30.652Z,95493.06
2023-05-02T04:21:59.895Z,95493.63
2023-05-02T04:24:28.936Z,95497.63
2023-05-02T04:26:58.740Z,95496.81
2023-05-02T04:29:27.252Z,95502.06
2023-05-02T04:31:57.761Z,95493.63
2023-05-02T04:34:28.703Z,95505.53
2023-05-02T04:36:57.276Z,95506.91
2023-05-02T04:39:26.702Z,95511.81
2023-05-02T04:42:01.522Z,95513.53
2023-05-02T04:44:32.002Z,95519.72
2023-05-02T04:47:01.606Z,95519.25
2023-05-02T04:49:29.991Z,95517.81
2023-05-02T04:51:58.105Z,95523.31
2023-05-02T04:54:26.734Z,95533.03
2023-05-02T04:56:55.233Z,95536.47
2023-05-02T04:59:25.268Z,95540.47
2023-05-02T05:01:53.559Z,95539.66
2023-05-02T05:04:23.122Z,95545.28
2023-05-02T05:06:51.449Z,95546.78
2023-05-02T05:09:21.597Z,95548.50
2023-05-02T05:11:49.828Z,95555.94
2023-05-02T05:14:18.489Z,95547.22
2023-05-02T05:16:50.378Z,95549.19
2023-05-02T05:19:18.913Z,95557.41
2023-05-02T05:21:48.766Z,95559.38
2023-05-02T05:24:19.397Z,95561.88
2023-05-02T05:26:48.612Z,95566.44
2023-05-02T05:29:18.291Z,95564.72
2023-05-02T05:31:46.533Z,95567.72
2023-05-02T05:34:17.979Z,95567.03
2023-05-02T05:36:49.271Z,95572.41
2023-05-02T05:39:17.855Z,95568.84
2023-05-02T05:41:49.010Z,95576.63
2023-05-02T05:44:18.322Z,95580.50
2023-05-02T05:46:46.457Z,95584.16
2023-05-02T05:49:17.358Z,95588.81
2023-05-02T05:51:48.121Z,95587.69
2023-05-02T05:54:20.181Z,95592.03
2023-05-02T05:56:49.335Z,95593.28
2023-05-02T05:59:20.291Z,95607.44
2023-05-02T06:01:49.466Z,95593.81
2023-05-02T06:04:19.458Z,95599.19
2023-05-02T06:06:51.565Z,95598.25
2023-05-02T06:09:21.427Z,95599.47
2023-05-02T06:11:49.816Z,95608.81
2023-05-02T06:14:17.991Z,95611.47
2023-05-02T06:16:48.699Z,95610.97
2023-05-02T06:19:16.827Z,95613.16
2023-05-02T06:21:45.046Z,95618.03
2023-05-02T06:24:13.315Z,95624.56
2023-05-02T06:26:42.988Z,95620.41
2023-05-02T06:29:11.105Z,95623.69
2023-05-02T06:31:39.576Z,95627.38
2023-05-02T06:34:08.174Z,95633.16
2023-05-02T06:36:36.351Z,95633.34
2023-05-02T06:39:04.890Z,95637.97
2023-05-02T06:41:33.165Z,95635.00
2023-05-02T06:44:02.587Z,95636.47
2023-05-02T06:46:32.018Z,95642.38
2023-05-02T06:49:00.359Z,95650.34
2023-05-02T06:51:28.778Z,95648.97
2023-05-02T06:53:56.899Z,95646.22
2023-05-02T06:56:26.455Z,95651.34
2023-05-02T06:58:55.229Z,95640.50
2023-05-02T07:01:26.326Z,95652.03
2023-05-02T07:03:55.081Z,95646.94
2023-05-02T07:06:23.641Z,95658.28
2023-05-02T07:08:51.860Z,95661.03
2023-05-02T07:11:21.189Z,95656.69
2023-05-02T07:13:49.340Z,95660.34
2023-05-02T07:16:17.422Z,95656.50
2023-05-02T07:18:47.124Z,95655.25
2023-05-02T07:21:15.425Z,95664.09
2023-05-02T07:23:43.531Z,95658.91
2023-05-02T07:26:11.866Z,95656.91
2023-05-02T07:28:40.068Z,95656.66
2023-05-02T07:31:08.503Z,95661.41
2023-05-02T07:33:37.171Z,95667.53
2023-05-02T07:36:07.396Z,95666.06
2023-05-02T07:38:35.454Z,95660.03
2023-05-02T07:41:04.554Z,95666.81
2023-05-02T07:43:32.551Z,95669.25
2023-05-02T07:46:05.898Z,95672.00
2023-05-02T07:48:34.177Z,95672.56
2023-05-02T07:51:20.339Z,95673.09
2023-05-02T07:53:51.898Z,95674.13
2023-05-02T07:56:20.157Z,95678.56
2023-05-02T07:58:48.202Z,95676.22
2023-05-02T08:01:16.264Z,95680.78
2023-05-02T08:03:44.940Z,95680.00
2023-05-02T08:06:14.035Z,95676.88
2023-05-02T08:08:43.501Z,95675.63
2023-05-02T08:11:11.788Z,95686.38
2023-05-02T08:13:40.018Z,95683.00
2023-05-02T08:16:08.897Z,95686.81
2023-05-02T08:18:37.496Z,95689.34
2023-05-02T08:21:07.221Z,95697.63
2023-05-02T08:23:37.621Z,95699.75
2023-05-02T08:26:07.350Z,95698.41
2023-05-02T08:28:38.185Z,95695.19
2023-05-02T08:31:06.635Z,95699.16
2023-05-02T08:33:35.853Z,95698.56
2023-05-02T08:36:12.064Z,95696.72
2023-05-02T08:38:40.083Z,95696.50
2023-05-02T08:41:12.709Z,95694.97
2023-05-02T08:43:41.151Z,95702.19
2023-05-02T08:46:11.206Z,95697.66
2023-05-02T08:48:41.757Z,95699.22
2023-05-02T08:51:13.273Z,95705.63
2023-05-02T08:53:42.772Z,95700.34
2023-05-02T08:56:14.191Z,95703.31
2023-05-02T08:58:42.982Z,95710.81
2023-05-02T09:01:16.144Z,95707.09
2023-05-02T09:03:46.444Z,95708.16
2023-05-02T09:06:17.269Z,95714.56
2023-05-02T09:08:48.873Z,95718.03
2023-05-02T09:11:21.294Z,95709.78
2023-05-02T09:13:51.888Z,95718.53
2023-05-02T09:16:22.926Z,95719.06
2023-05-02T09:18:53.064Z,95722.56
2023-05-02T09:21:23.551Z,95724.38
2023-05-02T09:23:54.027Z,95726.28
2023-05-02T09:26:27.936Z,95727.03
2023-05-02T09:28:57.961Z,95727.84
2023-05-02T09:34:11.000Z,95729.69
2023-05-02T09:36:44.283Z,95735.44
2023-05-02T09:39:14.494Z,95732.53
2023-05-02T09:41:45.393Z,95722.50
2023-05-02T09:44:17.125Z,95736.59
2023-05-02T09:46:48.553Z,95734.47
2023-05-02T09:49:19.174Z,95736.31
2023-05-02T09:51:48.076Z,95730.97
2023-05-02T09:54:36.119Z,95732.00
2023-05-02T09:57:07.400Z,95734.50
2023-05-02T09:59:36.525Z,95732.38
2023-05-02T10:02:07.713Z,95737.69
2023-05-02T10:04:36.330Z,95737.69
2023-05-02T10:07:06.499Z,95732.38
2023-05-02T10:09:38.123Z,95728.38
2023-05-02T10:12:08.882Z,95729.19
2023-05-02T10:14:42.714Z,95730.00
2023-05-02T10:17:16.030Z,95728.13
2023-05-02T10:19:56.752Z,95728.38
2023-05-02T10:22:25.747Z,95735.28
2023-05-02T10:24:55.144Z,95732.38
2023-05-02T10:27:25.348Z,95741.16
2023-05-02T10:29:53.634Z,95737.41
2023-05-02T10:32:26.352Z,95739.81
2023-05-02T10:34:58.994Z,95732.06
2023-05-02T10:37:30.435Z,95741.03
2023-05-02T10:40:00.435Z,95735.63
2023-05-02T10:42:32.186Z,95747.47
2023-05-02T10:45:01.688Z,95747.00
2023-05-02T10:47:30.514Z,95746.59
2023-05-02T10:50:01.358Z,95738.78
2023-05-02T10:52:31.784Z,95738.88
2023-05-02T10:55:16.940Z,95741.38
2023-05-02T10:58:23.276Z,95748.63
2023-05-02T11:00:51.889Z,95751.22
2023-05-02T11:03:57.978Z,95746.97
2023-05-02T11:06:28.215Z,95756.84
2023-05-02T11:09:30.163Z,95758.16
2023-05-02T11:11:58.784Z,95756.75
2023-05-02T11:14:50.949Z,95749.22
2023-05-02T11:17:19.951Z,95756.97
2023-05-02T11:20:21.841Z,95757.50
2023-05-02T11:22:51.193Z,95751.72
2023-05-02T11:25:37.293Z,95757.47
2023-05-02T11:28:28.681Z,95750.22
2023-05-02T11:30:58.790Z,95749.97
2023-05-02T11:33:27.788Z,95762.69
2023-05-02T11:35:57.069Z,95746.56
2023-05-02T11:38:26.723Z,95749.97
2023-05-02T11:41:02.897Z,95751.13
2023-05-02T11:43:32.142Z,95737.84
2023-05-02T11:46:05.088Z,95741.47
2023-05-02T11:48:33.746Z,95742.78
2023-05-02T11:51:07.485Z,95739.75
2023-05-02T11:53:42.594Z,95743.84
2023-05-02T11:56:11.071Z,95744.13
2023-05-02T11:58:39.221Z,95743.50
2023-05-02T12:01:16.402Z,95743.00
2023-05-02T12:03:45.090Z,95747.03
2023-05-02T12:06:16.033Z,95741.78
2023-05-02T12:08:45.830Z,95742.03
2023-05-02T12:11:15.788Z,95742.28
2023-05-02T12:13:48.919Z,95741.56
2023-05-02T12:16:19.983Z,95736.78
2023-05-02T12:18:49.648Z,95742.53
2023-05-02T12:21:18.805Z,95744.13
2023-05-02T12:23:47.933Z,95746.88
2023-05-02T12:26:21.529Z,95749.06
2023-05-02T12:28:51.491Z,95745.22
2023-05-02T12:31:21.797Z,95752.75
2023-05-02T12:33:52.504Z,95752.25
2023-05-02T12:36:20.724Z,95758.22
2023-05-02T12:38:55.213Z,95754.34
2023-05-02T12:41:33.976Z,95750.22
2023-05-02T12:44:02.656Z,95752.25
2023-05-02T12:46:33.125Z,95755.13
2023-05-02T12:49:07.005Z,95757.69
2023-05-02T12:51:35.086Z,95756.19
2023-05-02T12:54:03.378Z,95752.50
2023-05-02T12:56:33.143Z,95756.06
2023-05-02T12:59:05.324Z,95749.41
2023-05-02T13:01:35.897Z,95752.44
2023-05-02T13:04:05.714Z,95752.38
2023-05-02T13:06:38.209Z,95755.25
2023-05-02T13:09:06.696Z,95756.66
2023-05-02T13:11:34.853Z,95758.97
2023-05-02T13:14:05.210Z,95757.47
2023-05-02T13:16:36.620Z,95752.00
2023-05-02T13:19:06.916Z,95760.81
2023-05-02T13:21:35.067Z,95760.25
2023-05-02T13:24:04.125Z,95757.19
2023-05-02T13:26:32.529Z,95760.88
2023-05-02T13:29:00.778Z,95757.34
2023-05-02T13:31:28.899Z,95757.28
2023-05-02T13:33:57.167Z,95756.13
2023-05-02T13:36:27.029Z,95746.47
2023-05-02T13:38:55.024Z,95756.06
2023-05-02T13:41:24.735Z,95760.78
2023-05-02T13:43:54.156Z,95753.28
2023-05-02T13:46:22.251Z,95760.28
2023-05-02T13:48:50.360Z,95759.91
2023-05-02T13:51:18.755Z,95761.78
2023-05-02T13:53:48.165Z,95762.25
2023-05-02T13:56:16.448Z,95763.03
2023-05-02T13:58:45.230Z,95761.41
2023-05-02T14:01:13.388Z,95748.81
2023-05-02T14:03:42.374Z,95759.63
2023-05-02T14:06:10.852Z,95766.97
2023-05-02T14:08:39.070Z,95762.00
2023-05-02T14:11:08.733Z,95766.81
2023-05-02T14:13:36.702Z,95765.94
2023-05-02T14:16:05.211Z,95762.22
2023-05-02T14:18:33.234Z,95763.25
2023-05-02T14:21:01.249Z,95770.56
2023-05-02T14:23:29.386Z,95770.88
2023-05-02T14:25:57.456Z,95761.38
2023-05-02T14:28:27.135Z,95762.72
2023-05-02T14:30:55.516Z,95770.88
2023-05-02T14:33:23.857Z,95767.06
2023-05-02T14:35:53.365Z,95759.75
2023-05-02T14:38:21.634Z,95762.97
2023-05-02T14:40:49.598Z,95761.81
2023-05-02T14:43:18.188Z,95775.13
2023-05-02T14:45:47.928Z,95773.28
2023-05-02T14:48:17.430Z,95774.09
2023-05-02T14:50:45.980Z,95771.41
2023-05-02T14:53:14.520Z,95776.13
2023-05-02T14:55:43.329Z,95777.47
2023-05-02T14:58:11.884Z,95772.84
2023-05-02T15:00:40.295Z,95781.53
2023-05-02T15:03:10.988Z,95782.50
2023-05-02T15:05:39.231Z,95794.06
2023-05-02T15:08:07.693Z,95785.78
2023-05-02T15:10:38.341Z,95791.34
2023-05-02T15:13:07.529Z,95788.41
2023-05-02T15:15:37.403Z,95789.31
2023-05-02T15:18:06.166Z,95790.13
2023-05-02T15:20:35.520Z,95786.72
2023-05-02T15:23:04.693Z,95786.63
2023-05-02T15:25:32.868Z,95788.09
2023-05-02T15:28:02.962Z,95783.06
2023-05-02T15:30:31.591Z,95780.97
2023-05-02T15:33:00.199Z,95781.72
2023-05-02T15:35:28.382Z,95793.28
2023-05-02T15:37:58.472Z,95783.41
2023-05-02T15:40:28.576Z,95786.97
2023-05-02T15:42:56.755Z,95783.75
2023-05-02T15:45:24.789Z,95790.00
2023-05-02T15:47:52.928Z,95784.84
2023-05-02T15:50:21.140Z,95789.81
2023-05-02T15:52:49.039Z,95791.22
2023-05-02T15:55:18.415Z,95790.66
2023-05-02T15:57:47.200Z,95789.31
2023-05-02T16:00:18.206Z,95793.66
2023-05-02T16:02:46.593Z,95794.84
2023-05-02T16:05:15.657Z,95787.34
2023-05-02T16:07:44.413Z,95793.66
2023-05-02T16:10:12.816Z,95800.25
2023-05-02T16:12:42.374Z,95809.47
2023-05-02T16:15:10.848Z,95819.66
2023-05-02T16:17:38.859Z,95817.34
2023-05-02T16:20:08.149Z,95829.03
2023-05-02T16:22:36.778Z,95845.59
2023-05-02T16:25:05.820Z,95863.09
2023-05-02T16:27:34.998Z,95872.19
2023-05-02T16:30:06.036Z,95879.66
2023-05-02T16:32:35.123Z,95877.88
2023-05-02T16:35:05.043Z,95879.66
2023-05-02T16:37:35.405Z,95894.72
2023-05-02T16:40:05.647Z,95895.72
2023-05-02T16:42:34.519Z,95900.00
2023-05-02T16:45:04.828Z,95907.38
2023-05-02T16:47:35.516Z,95907.41
2023-05-02T16:50:04.620Z,95912.75
2023-05-02T16:52:33.339Z,95921.47
2023-05-02T16:55:01.674Z,95916.66
2023-05-02T16:57:29.837Z,95918.41
2023-05-02T16:59:58.324Z,95923.91
2023-05-02T17:02:27.918Z,95928.13
2023-05-02T17:04:56.379Z,95925.47
2023-05-02T17:07:26.050Z,95924.59
2023-05-02T17:09:54.291Z,95922.94
2023-05-02T17:12:22.891Z,95927.63
2023-05-02T17:14:51.883Z,95917.31
2023-05-02T17:17:23.328Z,95916.16
2023-05-02T17:19:52.858Z,95916.09
2023-05-02T17:22:21.496Z,95909.34
2023-05-02T17:24:52.883Z,95914.88
2023-05-02T17:27:21.810Z,95916.66
2023-05-02T17:29:50.202Z,95919.59
2023-05-02T17:32:18.386Z,95901.56
2023-05-02T17:34:46.639Z,95900.75
2023-05-02T17:37:17.162Z,95900.72
2023-05-02T17:39:46.653Z,95898.78
2023-05-02T17:42:14.865Z,95899.59
2023-05-02T17:44:42.996Z,95896.63
2023-05-02T17:47:11.189Z,95901.34
2023-05-02T17:49:39.797Z,95901.03
2023-05-02T17:52:07.780Z,95914.03
2023-05-02T17:54:37.438Z,95915.44
2023-05-02T17:57:05.615Z,95917.50
2023-05-02T17:59:33.780Z,95928.75
2023-05-02T18:02:02.092Z,95938.78
2023-05-02T18:04:30.338Z,95932.19
2023-05-02T18:06:58.503Z,95938.41
2023-05-02T18:09:26.724Z,95935.94
2023-05-02T18:11:58.519Z,95941.19
2023-05-02T18:14:26.788Z,95930.66
2023-05-02T18:16:54.793Z,95937.31
2023-05-02T18:19:23.544Z,95925.75
2023-05-02T18:21:51.738Z,95928.38
2023-05-02T18:24:19.933Z,95935.47
2023-05-02T18:26:49.893Z,95930.78
2023-05-02T18:29:19.722Z,95930.59
2023-05-02T18:31:52.384Z,95929.56
2023-05-02T18:34:20.998Z,95934.81
2023-05-02T18:36:49.072Z,95935.84
2023-05-02T18:39:17.404Z,95941.47
2023-05-02T18:41:45.430Z,95942.03
2023-05-02T18:44:13.418Z,95942.03
2023-05-02T18:46:45.942Z,95951.19
2023-05-02T18:49:14.042Z,95953.84
2023-05-02T18:51:42.637Z,95952.81
2023-05-02T18:54:11.081Z,95951.56
2023-05-02T18:56:39.742Z,95956.84
2023-05-02T18:59:07.857Z,95958.44
2023-05-02T19:01:36.343Z,95958.06
2023-05-02T19:04:06.947Z,95956.25
2023-05-02T19:06:35.332Z,95966.19
2023-05-02T19:09:04.683Z,95965.63
2023-05-02T19:11:32.712Z,95973.72
2023-05-02T19:14:03.649Z,95978.19
2023-05-02T19:16:32.007Z,95974.75
2023-05-02T19:19:00.109Z,95979.78
2023-05-02T19:21:29.694Z,95974.75
2023-05-02T19:23:57.678Z,95990.38
2023-05-02T19:26:25.734Z,95980.06
2023-05-02T19:28:53.715Z,95980.47
2023-05-02T19:31:23.373Z,95985.28
2023-05-02T19:33:52.416Z,95986.69
2023-05-02T19:36:22.834Z,95988.13
2023-05-02T19:38:54.233Z,95990.19
2023-05-02T19:41:23.280Z,95988.78
2023-05-02T19:43:53.001Z,95989.38
2023-05-02T19:46:21.177Z,95991.22
2023-05-02T19:48:49.420Z,95989.81
2023-05-02T19:51:17.978Z,95999.53
2023-05-02T19:53:46.301Z,95995.53
2023-05-02T19:56:16.071Z,95992.50
2023-05-02T19:58:44.404Z,95995.94
2023-05-02T20:01:12.604Z,96000.03
2023-05-02T20:03:40.820Z,96003.31
2023-05-02T20:06:08.965Z,96008.06
2023-05-02T20:08:37.184Z,96006.53
2023-05-02T20:11:05.288Z,96001.31
2023-05-02T20:13:36.457Z,96005.56
2023-05-02T20:16:04.821Z,96001.34
2023-05-02T20:18:33.272Z,96009.63
2023-05-02T20:21:01.280Z,96007.44
2023-05-02T20:23:29.413Z,96007.50
2023-05-02T20:25:57.613Z,96008.34
2023-05-02T20:28:26.450Z,96012.06
2023-05-02T20:30:56.060Z,96005.25
2023-05-02T20:33:27.503Z,96007.06
2023-05-02T20:35:58.507Z,96007.25
2023-05-02T20:38:26.877Z,96011.94
2023-05-02T20:40:55.100Z,96005.06
2023-05-02T20:43:23.409Z,96001.47
2023-05-02T20:45:51.846Z,96003.50
2023-05-02T20:48:22.480Z,96008.16
2023-05-02T20:50:54.505Z,96013.44
2023-05-02T20:53:24.040Z,96014.09
2023-05-02T20:55:52.390Z,96014.72
2023-05-02T20:58:20.634Z,96013.38
2023-05-02T21:00:52.593Z,96016.78
2023-05-02T21:03:22.988Z,96011.13
2023-05-02T21:05:54.652Z,96015.63
2023-05-02T21:08:23.342Z,96013.84
2023-05-02T21:10:51.697Z,96012.53
2023-05-02T21:13:19.860Z,96014.38
2023-05-02T21:15:48.076Z,96009.75
2023-05-02T21:18:16.418Z,96006.75
2023-05-02T21:20:48.140Z,96007.94
2023-05-02T21:23:16.062Z,96010.78
2023-05-02T21:25:44.397Z,96007.94
2023-05-02T21:28:12.739Z,96008.16
2023-05-02T21:30:40.828Z,96001.72
2023-05-02T21:33:09.396Z,96009.78
2023-05-02T21:35:37.996Z,96003.94
2023-05-02T21:38:07.777Z,96006.19
2023-05-02T21:40:37.340Z,96001.53
2023-05-02T21:43:05.648Z,96009.97
2023-05-02T21:45:34.691Z,96003.34
2023-05-02T21:48:02.717Z,96008.38
2023-05-02T21:50:31.319Z,96005.56
2023-05-02T21:52:59.267Z,96008.00
2023-05-02T21:55:28.726Z,96003.75
2023-05-02T21:57:57.244Z,96005.81
2023-05-02T22:00:25.923Z,96007.03
2023-05-02T22:02:54.211Z,96004.63
2023-05-02T22:05:23.157Z,96001.59
2023-05-02T22:07:52.276Z,96008.22
2023-05-02T22:10:20.677Z,96007.84
2023-05-02T22:12:50.081Z,96008.63
2023-05-02T22:15:18.752Z,96004.63
2023-05-02T22:17:46.850Z,96004.78
2023-05-02T22:20:15.641Z,96011.69
2023-05-02T22:22:43.981Z,96002.16
2023-05-02T22:25:12.035Z,96003.81
2023-05-02T22:27:40.250Z,96003.59
2023-05-02T22:30:11.285Z,96009.63
2023-05-02T22:32:39.497Z,96003.97
2023-05-02T22:35:08.960Z,96006.41
2023-05-02T22:37:37.100Z,96010.44
2023-05-02T22:40:08.313Z,96008.41
2023-05-02T22:42:36.677Z,96011.84
2023-05-02T22:45:07.876Z,96014.03
2023-05-02T22:47:37.898Z,96021.66
2023-05-02T22:50:11.442Z,96009.59
2023-05-02T22:52:39.961Z,96002.53
2023-05-02T22:55:10.053Z,96011.78
2023-05-02T22:57:38.490Z,96020.28
2023-05-02T23:00:09.323Z,96017.84
2023-05-02T23:02:40.023Z,96016.84
2023-05-02T23:05:09.797Z,96018.25
2023-05-02T23:07:38.028Z,96012.00
2023-05-02T23:10:07.436Z,96018.69
2023-05-02T23:12:35.500Z,96014.41
2023-05-02T23:15:03.990Z,96017.25
2023-05-02T23:17:32.418Z,96014.00
2023-05-02T23:20:02.403Z,96018.00
2023-05-02T23:22:31.032Z,96025.25
2023-05-02T23:24:59.204Z,96021.41
2023-05-02T23:27:27.830Z,96019.19
2023-05-02T23:29:56.006Z,96015.97
2023-05-02T23:32:24.033Z,96017.00
2023-05-02T23:34:52.360Z,96017.00
2023-05-02T23:37:23.805Z,96017.38
2023-05-02T23:39:52.331Z,96016.59
2023-05-02T23:42:21.256Z,96007.75
2023-05-02T23:44:49.533Z,96007.56
2023-05-02T23:47:17.505Z,96011.97
2023-05-02T23:49:45.653Z,96006.94
2023-05-02T23:52:13.640Z,96009.56
2023-05-02T23:54:43.526Z,96014.22
2023-05-02T23:57:11.954Z,96011.59
2023-05-02T23:59:40.029Z,96008.75
